createdAt,value
2018-12-07T00:00:26.697Z,18.90
2018-12-07T00:02:56.314Z,21.87
2018-12-07T00:05:25.324Z,21.13
2018-12-07T00:07:55.445Z,19.80
2018-12-07T00:10:24.493Z,21.97
2018-12-07T00:12:53.482Z,20.07
2018-12-07T00:15:22.518Z,21.90
2018-12-07T00:17:51.569Z,17.80
2018-12-07T00:20:20.619Z,21.27
2018-12-07T00:22:49.633Z,20.10
2018-12-07T00:25:18.659Z,20.23
2018-12-07T00:33:34.732Z,18.73
2018-12-07T00:36:10.527Z,22.60
2018-12-07T00:38:39.587Z,18.70
2018-12-07T00:41:08.579Z,16.33
2018-12-07T00:43:37.593Z,17.37
2018-12-07T00:46:06.637Z,18.73
2018-12-07T00:48:35.638Z,14.70
2018-12-07T00:51:04.644Z,14.27
2018-12-07T00:53:33.651Z,15.17
2018-12-07T00:56:02.664Z,14.20
2018-12-07T00:58:31.666Z,13.13
2018-12-07T01:01:00.686Z,10.87
2018-12-07T01:17:07.015Z,9.63
2018-12-07T01:22:20.431Z,7.37
2018-12-07T01:24:52.645Z,8.07
2018-12-07T01:27:24.127Z,7.40
2018-12-07T01:29:53.695Z,7.37
2018-12-07T01:32:23.163Z,8.37
2018-12-07T01:34:52.683Z,7.30
2018-12-07T01:37:22.147Z,6.07
2018-12-07T01:40:10.358Z,6.23
2018-12-07T01:42:40.909Z,5.60
2018-12-07T01:45:11.929Z,5.57
2018-12-07T01:47:46.256Z,5.70
2018-12-07T01:50:24.545Z,4.77
2018-12-07T01:52:57.986Z,4.30
2018-12-07T01:55:27.545Z,4.80
2018-12-07T01:58:03.361Z,4.10
2018-12-07T02:07:56.581Z,4.67
2018-12-07T02:13:25.512Z,1.97
2018-12-07T02:16:00.625Z,8.33
2018-12-07T02:18:36.576Z,2.20
2018-12-07T02:21:15.995Z,2.33
2018-12-07T02:23:51.001Z,2.63
2018-12-07T02:26:27.553Z,2.47
2018-12-07T02:29:03.890Z,2.00
2018-12-07T02:31:40.414Z,2.37
2018-12-07T02:34:16.518Z,1.60
2018-12-07T02:36:52.682Z,1.60
2018-12-07T02:39:29.240Z,1.87
2018-12-07T02:42:06.768Z,1.60
2018-12-07T02:44:51.305Z,2.03
2018-12-07T02:47:29.814Z,1.30
2018-12-07T02:50:08.436Z,1.40
2018-12-07T02:52:50.792Z,1.33
2018-12-07T02:55:27.236Z,1.60
2018-12-07T02:58:11.559Z,2.17
2018-12-07T03:00:49.180Z,2.03
2018-12-07T03:03:27.087Z,1.37
2018-12-07T03:06:01.407Z,1.60
2018-12-07T03:08:34.714Z,1.47
2018-12-07T03:11:21.779Z,1.30
2018-12-07T03:13:53.349Z,1.80
2018-12-07T03:16:26.162Z,1.10
2018-12-07T03:18:59.164Z,1.60
2018-12-07T03:21:32.805Z,1.67
2018-12-07T03:24:06.924Z,3.43
2018-12-07T03:26:40.288Z,1.20
2018-12-07T03:29:28.773Z,1.37
2018-12-07T03:32:04.242Z,1.93
2018-12-07T03:34:36.359Z,1.57
2018-12-07T03:37:09.430Z,1.60
2018-12-07T03:39:39.069Z,1.53
2018-12-07T03:42:09.659Z,1.53
2018-12-07T03:44:38.794Z,5.03
2018-12-07T03:47:08.300Z,1.80
2018-12-07T03:49:37.466Z,1.57
2018-12-07T03:52:08.504Z,1.90
2018-12-07T03:54:40.619Z,1.67
2018-12-07T03:57:09.964Z,1.50
2018-12-07T03:59:39.149Z,1.60
2018-12-07T04:02:08.389Z,1.60
2018-12-07T04:04:37.782Z,1.60
2018-12-07T04:07:06.816Z,1.80
2018-12-07T04:09:35.844Z,1.60
2018-12-07T04:15:00.324Z,1.60
2018-12-07T04:17:31.133Z,1.40
2018-12-07T04:20:00.691Z,1.77
2018-12-07T04:22:47.198Z,1.43
2018-12-07T04:25:23.953Z,1.53
2018-12-07T04:27:53.763Z,1.60
2018-12-07T04:30:28.961Z,1.57
2018-12-07T04:33:02.650Z,1.67
2018-12-07T04:35:37.174Z,1.43
2018-12-07T04:38:09.026Z,2.37
2018-12-07T04:40:41.772Z,1.40
2018-12-07T04:43:16.336Z,1.60
2018-12-07T04:45:50.764Z,1.70
2018-12-07T04:48:25.303Z,1.63
2018-12-07T04:51:01.060Z,1.63
2018-12-07T04:53:45.625Z,1.70
2018-12-07T04:56:20.453Z,1.67
2018-12-07T04:58:56.390Z,1.30
2018-12-07T05:01:31.950Z,1.93
2018-12-07T05:04:08.114Z,1.50
2018-12-07T05:06:44.730Z,1.67
2018-12-07T05:09:23.402Z,1.67
2018-12-07T05:11:54.054Z,1.40
2018-12-07T05:14:26.926Z,1.50
2018-12-07T05:16:58.096Z,1.50
2018-12-07T05:19:27.924Z,2.73
2018-12-07T05:24:54.048Z,1.40
2018-12-07T05:27:27.303Z,1.53
2018-12-07T05:29:58.891Z,1.80
2018-12-07T05:32:41.278Z,1.67
2018-12-07T05:35:14.060Z,1.60
2018-12-07T05:37:49.846Z,1.57
2018-12-07T05:40:20.038Z,1.67
2018-12-07T05:42:54.771Z,3.87
2018-12-07T05:48:23.613Z,1.87
2018-12-07T05:50:49.712Z,2.13
2018-12-07T05:53:20.570Z,2.93
2018-12-07T05:55:50.959Z,4.70
2018-12-07T05:58:25.310Z,4.33
2018-12-07T06:00:59.263Z,1.47
2018-12-07T06:03:43.047Z,3.80
2018-12-07T06:09:11.170Z,2.00
2018-12-07T06:11:45.940Z,2.67
2018-12-07T06:14:15.559Z,1.90
2018-12-07T06:16:59.149Z,2.07
2018-12-07T06:23:18.724Z,2.00
2018-12-07T09:08:30.848Z,2.60
2018-12-07T09:11:07.062Z,3.07
2018-12-07T12:10:02.243Z,0.60
2018-12-07T13:53:23.339Z,1.00
2018-12-07T15:28:50.694Z,6.50
2018-12-07T15:31:19.997Z,5.17
2018-12-07T15:33:48.169Z,4.43
2018-12-07T15:36:16.651Z,4.77
2018-12-07T15:38:45.008Z,4.90
2018-12-07T15:41:13.543Z,5.60
2018-12-07T15:46:16.384Z,6.63
2018-12-07T15:48:44.827Z,6.47
2018-12-07T15:51:13.230Z,8.30
2018-12-07T15:53:41.759Z,6.80
2018-12-07T15:56:09.856Z,7.27
2018-12-07T15:58:38.022Z,8.70
2018-12-07T16:01:06.323Z,8.67
2018-12-07T16:03:34.706Z,10.13
2018-12-07T16:06:02.869Z,9.07
2018-12-07T16:08:31.133Z,10.87
2018-12-07T16:10:59.205Z,11.70
2018-12-07T16:13:27.447Z,11.47
2018-12-07T16:15:55.812Z,11.00
2018-12-07T16:18:24.169Z,11.90
2018-12-07T16:20:52.330Z,12.93
2018-12-07T16:23:20.492Z,15.77
2018-12-07T16:25:48.688Z,12.10
2018-12-07T16:28:16.927Z,10.83
2018-12-07T16:30:45.126Z,12.50
2018-12-07T16:33:13.465Z,13.60
2018-12-07T16:35:41.752Z,12.57
2018-12-07T16:38:09.877Z,13.47
2018-12-07T16:40:37.971Z,12.83
2018-12-07T16:43:06.097Z,13.67
2018-12-07T16:45:34.324Z,11.87
2018-12-07T16:48:02.512Z,10.77
2018-12-07T16:50:30.898Z,13.97
2018-12-07T16:52:59.249Z,15.30
2018-12-07T16:55:27.716Z,11.93
2018-12-07T16:57:56.499Z,10.17
2018-12-07T17:00:25.109Z,11.80
2018-12-07T17:02:53.499Z,9.90
2018-12-07T17:05:21.786Z,7.77
2018-12-07T17:07:50.210Z,10.00
2018-12-07T17:10:18.384Z,7.73
2018-12-07T17:12:46.591Z,8.10
2018-12-07T17:15:14.665Z,8.47
2018-12-07T17:17:42.983Z,7.17
2018-12-07T17:20:11.325Z,7.50
2018-12-07T17:22:39.413Z,7.77
2018-12-07T17:25:07.593Z,6.60
2018-12-07T17:27:35.863Z,6.70
2018-12-07T17:30:04.706Z,4.60
2018-12-07T17:32:33.282Z,5.47
2018-12-07T17:35:01.452Z,5.23
2018-12-07T17:37:29.803Z,5.77
2018-12-07T17:39:58.154Z,6.43
2018-12-07T17:42:29.723Z,5.80
2018-12-07T17:44:56.515Z,5.33
2018-12-07T17:47:25.137Z,5.10
2018-12-07T17:49:53.615Z,6.67
2018-12-07T17:52:21.881Z,7.77
2018-12-07T17:54:50.171Z,4.33
2018-12-07T17:57:18.464Z,4.67
2018-12-07T17:59:46.600Z,3.30
2018-12-07T18:02:14.693Z,2.93
2018-12-07T18:04:42.833Z,4.27
2018-12-07T18:07:10.979Z,2.93
2018-12-07T18:09:39.373Z,2.53
2018-12-07T18:12:07.641Z,3.20
2018-12-07T18:14:36.054Z,5.00
2018-12-07T18:17:04.446Z,3.87
2018-12-07T18:19:32.688Z,6.70
2018-12-07T18:22:01.011Z,5.33
2018-12-07T18:24:29.661Z,4.20
2018-12-07T18:26:59.242Z,3.47
2018-12-07T18:29:27.665Z,5.37
2018-12-07T18:31:55.904Z,7.40
2018-12-07T18:34:24.024Z,2.73
2018-12-07T18:36:52.184Z,4.63
2018-12-07T18:39:20.305Z,4.73
2018-12-07T18:41:48.651Z,2.37
2018-12-07T18:44:16.947Z,4.43
2018-12-07T18:46:45.280Z,3.90
2018-12-07T18:49:13.590Z,6.17
2018-12-07T18:51:42.008Z,4.20
2018-12-07T18:54:12.985Z,5.23
2018-12-07T18:56:41.316Z,3.67
2018-12-07T18:59:09.538Z,3.50
2018-12-07T19:01:37.701Z,3.73
2018-12-07T19:04:06.004Z,4.47
2018-12-07T19:06:34.406Z,3.37
2018-12-07T19:09:04.220Z,3.20
2018-12-07T19:11:32.381Z,3.60
2018-12-07T19:14:00.686Z,2.57
2018-12-07T19:16:28.843Z,3.20
2018-12-07T19:18:57.093Z,3.57
2018-12-07T19:21:25.251Z,3.03
2018-12-07T19:23:53.535Z,7.57
2018-12-07T19:26:21.733Z,3.47
2018-12-07T19:28:50.140Z,2.40
2018-12-07T19:31:18.265Z,2.87
2018-12-07T19:33:46.765Z,4.10
2018-12-07T19:36:15.108Z,3.03
2018-12-07T19:38:43.495Z,2.10
2018-12-07T19:41:11.841Z,2.07
2018-12-07T19:43:40.351Z,2.53
2018-12-07T19:46:08.763Z,3.60
2018-12-07T19:48:38.940Z,1.97
2018-12-07T19:51:07.181Z,1.80
2018-12-07T19:53:35.799Z,3.17
2018-12-07T19:56:04.181Z,2.30
2018-12-07T19:58:32.701Z,2.17
2018-12-07T20:01:01.252Z,2.33
2018-12-07T20:03:29.731Z,4.40
2018-12-07T20:05:58.181Z,2.47
2018-12-07T20:08:26.443Z,3.13
2018-12-07T20:10:55.454Z,1.50
2018-12-07T20:13:23.749Z,3.50
2018-12-07T20:15:51.977Z,2.27
2018-12-07T20:18:20.257Z,5.20
2018-12-07T20:20:49.032Z,1.20
2018-12-07T20:23:17.262Z,2.40
2018-12-07T20:25:45.563Z,2.93
2018-12-07T20:28:13.821Z,1.70
2018-12-07T20:30:42.035Z,2.30
2018-12-07T20:33:10.212Z,4.10
2018-12-07T20:35:38.560Z,3.53
2018-12-07T20:38:06.986Z,4.13
2018-12-07T20:40:35.760Z,2.80
2018-12-07T20:43:07.473Z,2.23
2018-12-07T20:45:35.761Z,5.53
2018-12-07T20:48:04.101Z,2.83
2018-12-07T20:50:32.342Z,5.70
2018-12-07T20:53:00.555Z,3.20
2018-12-07T20:55:28.851Z,5.23
2018-12-07T20:57:57.066Z,9.87
2018-12-07T21:00:25.531Z,12.33
2018-12-07T21:02:54.531Z,9.40
2018-12-07T21:11:07.830Z,6.03
2018-12-07T21:13:48.414Z,7.37
2018-12-07T21:17:05.152Z,15.87
2018-12-07T21:19:34.227Z,7.20
2018-12-07T21:22:03.364Z,10.60
2018-12-07T21:24:31.723Z,3.13
2018-12-07T21:26:59.998Z,9.50
2018-12-07T21:29:28.294Z,12.33
2018-12-07T21:31:57.155Z,8.00
2018-12-07T21:34:29.849Z,6.70
2018-12-07T21:36:58.225Z,7.97
2018-12-07T21:39:30.608Z,8.53
2018-12-07T21:41:59.075Z,11.37
2018-12-07T21:44:27.252Z,15.00
2018-12-07T21:46:55.648Z,7.13
2018-12-07T21:49:24.560Z,11.10
2018-12-07T21:51:59.979Z,15.03
2018-12-07T21:54:28.218Z,12.70
2018-12-07T21:56:56.503Z,10.60
2018-12-07T21:59:24.943Z,16.33
2018-12-07T22:01:53.038Z,9.47
2018-12-07T22:04:21.375Z,5.33
2018-12-07T22:06:50.235Z,12.33
2018-12-07T22:09:18.739Z,8.10
2018-12-07T22:11:47.539Z,8.97
2018-12-07T22:14:15.658Z,8.93
2018-12-07T22:16:43.654Z,16.03
2018-12-07T22:19:11.917Z,10.03
2018-12-07T22:21:40.307Z,9.23
2018-12-07T22:24:08.848Z,12.23
2018-12-07T22:26:37.554Z,11.73
2018-12-07T22:29:05.722Z,6.87
2018-12-07T22:31:34.018Z,12.13
2018-12-07T22:34:02.200Z,12.73
2018-12-07T22:36:30.274Z,6.83
2018-12-07T22:38:58.241Z,15.07
2018-12-07T22:41:26.444Z,10.03
2018-12-07T22:43:54.833Z,8.63
2018-12-07T22:46:23.373Z,6.37
2018-12-07T22:48:51.979Z,11.57
2018-12-07T22:51:23.962Z,19.00
2018-12-07T22:53:52.617Z,9.00
2018-12-07T22:56:20.585Z,11.47
2018-12-07T22:58:48.658Z,8.73
2018-12-07T23:01:16.642Z,11.07
2018-12-07T23:03:51.450Z,14.67
2018-12-07T23:06:19.531Z,11.83
2018-12-07T23:08:47.691Z,15.13
2018-12-07T23:11:15.705Z,17.00
2018-12-07T23:13:43.662Z,6.20
2018-12-07T23:16:11.638Z,12.77
2018-12-07T23:18:39.675Z,13.97
2018-12-07T23:21:07.647Z,7.47
2018-12-07T23:23:35.639Z,7.17
2018-12-07T23:26:03.631Z,16.17
2018-12-07T23:28:31.613Z,8.70
2018-12-07T23:30:59.615Z,11.93
2018-12-07T23:33:27.628Z,18.87
2018-12-07T23:35:55.659Z,21.30
2018-12-07T23:38:23.647Z,11.77
2018-12-07T23:40:51.689Z,10.50
2018-12-07T23:43:19.678Z,11.03
2018-12-07T23:45:48.663Z,12.97
2018-12-07T23:48:16.665Z,19.80
2018-12-07T23:50:46.858Z,10.23
2018-12-07T23:53:14.849Z,13.20
2018-12-07T23:55:42.915Z,14.50
2018-12-07T23:58:10.909Z,14.77
